createdAt,value
2023-04-08T00:01:15.286Z,12.30
2023-04-08T00:03:43.214Z,12.30
2023-04-08T00:06:11.160Z,12.30
2023-04-08T00:08:38.832Z,12.30
2023-04-08T00:11:06.738Z,12.40
2023-04-08T00:13:35.806Z,12.40
2023-04-08T00:16:04.041Z,12.30
2023-04-08T00:18:32.055Z,12.30
2023-04-08T00:20:59.726Z,12.20
2023-04-08T00:23:27.450Z,12.20
2023-04-08T00:25:55.333Z,12.20
2023-04-08T00:28:23.055Z,12.10
2023-04-08T00:30:53.745Z,12.10
2023-04-08T00:33:21.732Z,12.10
2023-04-08T00:35:49.728Z,12.20
2023-04-08T00:38:17.452Z,12.10
2023-04-08T00:40:45.375Z,12.20
2023-04-08T00:43:13.436Z,12.10
2023-04-08T00:45:41.141Z,12.20
2023-04-08T00:48:10.384Z,12.20
2023-04-08T00:50:38.124Z,12.20
2023-04-08T00:53:05.921Z,12.10
2023-04-08T00:55:33.629Z,12.20
2023-04-08T00:58:01.404Z,12.20
2023-04-08T01:00:31.440Z,12.20
2023-04-08T01:03:08.985Z,12.30
2023-04-08T01:05:46.942Z,12.30
2023-04-08T01:08:16.071Z,12.20
2023-04-08T01:10:45.967Z,12.30
2023-04-08T01:13:18.715Z,12.20
2023-04-08T01:15:47.213Z,12.20
2023-04-08T01:18:16.717Z,12.30
2023-04-08T01:20:46.725Z,12.30
2023-04-08T01:23:19.925Z,12.30
2023-04-08T01:25:50.981Z,12.40
2023-04-08T01:28:20.372Z,12.40
2023-04-08T01:30:49.882Z,12.40
2023-04-08T01:33:20.032Z,12.40
2023-04-08T01:35:47.820Z,12.30
2023-04-08T01:38:18.719Z,12.30
2023-04-08T01:40:49.793Z,12.20
2023-04-08T01:43:18.862Z,12.20
2023-04-08T01:45:48.138Z,12.20
2023-04-08T01:48:16.516Z,12.20
2023-04-08T01:50:45.429Z,12.20
2023-04-08T01:53:13.329Z,12.20
2023-04-08T01:55:43.006Z,12.40
2023-04-08T01:58:17.372Z,12.60
2023-04-08T02:00:46.369Z,12.60
2023-04-08T02:03:15.972Z,12.30
2023-04-08T02:05:43.812Z,12.40
2023-04-08T02:08:11.542Z,12.30
2023-04-08T02:10:39.182Z,12.20
2023-04-08T02:13:07.100Z,12.20
2023-04-08T02:15:39.163Z,12.20
2023-04-08T02:18:12.514Z,12.20
2023-04-08T02:20:45.928Z,12.30
2023-04-08T02:23:16.916Z,12.40
2023-04-08T02:25:46.403Z,12.30
2023-04-08T02:28:16.221Z,12.40
2023-04-08T02:30:50.945Z,12.10
2023-04-08T02:33:20.398Z,12.10
2023-04-08T02:35:49.393Z,12.20
2023-04-08T02:38:17.354Z,12.20
2023-04-08T02:40:45.047Z,12.30
2023-04-08T02:43:12.733Z,12.20
2023-04-08T02:45:43.258Z,12.20
2023-04-08T02:48:12.421Z,12.20
2023-04-08T02:50:40.633Z,12.30
2023-04-08T02:53:09.805Z,12.20
2023-04-08T02:55:37.913Z,12.20
2023-04-08T02:58:05.656Z,12.20
2023-04-08T03:00:33.452Z,12.10
2023-04-08T03:03:01.644Z,12.20
2023-04-08T03:05:31.060Z,12.20
2023-04-08T03:07:58.819Z,12.20
2023-04-08T03:10:26.865Z,12.10
2023-04-08T03:12:54.570Z,12.10
2023-04-08T03:15:22.292Z,12.30
2023-04-08T03:17:50.083Z,12.20
2023-04-08T03:20:17.848Z,12.20
2023-04-08T03:22:46.874Z,12.20
2023-04-08T03:25:14.610Z,12.20
2023-04-08T03:27:42.286Z,12.40
2023-04-08T03:30:10.353Z,12.40
2023-04-08T03:32:38.270Z,12.50
2023-04-08T03:35:06.951Z,12.40
2023-04-08T03:37:34.690Z,12.40
2023-04-08T03:40:04.190Z,12.30
2023-04-08T03:42:32.114Z,12.30
2023-04-08T03:44:59.807Z,12.40
2023-04-08T03:47:27.727Z,12.40
2023-04-08T03:49:55.616Z,12.30
2023-04-08T03:52:23.744Z,12.20
2023-04-08T03:54:51.441Z,12.20
2023-04-08T03:57:20.608Z,12.20
2023-04-08T03:59:48.338Z,12.20
2023-04-08T04:02:16.174Z,12.20
2023-04-08T04:04:43.919Z,12.10
2023-04-08T04:07:11.667Z,12.10
2023-04-08T04:09:39.349Z,12.10
2023-04-08T04:12:07.015Z,12.20
2023-04-08T04:14:36.156Z,12.10
2023-04-08T04:17:03.875Z,12.10
2023-04-08T04:19:32.157Z,12.00
2023-04-08T04:21:59.864Z,12.10
2023-04-08T04:24:27.590Z,12.20
2023-04-08T04:26:55.453Z,12.30
2023-04-08T04:29:23.191Z,12.30
2023-04-08T04:31:52.280Z,12.20
2023-04-08T04:34:19.954Z,12.20
2023-04-08T04:36:47.677Z,12.30
2023-04-08T04:39:15.627Z,12.30
2023-04-08T04:41:44.405Z,12.40
2023-04-08T04:44:12.186Z,12.20
2023-04-08T04:46:40.067Z,12.10
2023-04-08T04:49:09.235Z,12.10
2023-04-08T04:51:36.912Z,12.20
2023-04-08T04:54:04.672Z,12.10
2023-04-08T04:56:32.457Z,12.00
2023-04-08T04:59:00.179Z,12.00
2023-04-08T05:01:28.874Z,11.90
2023-04-08T05:03:56.862Z,11.80
2023-04-08T05:06:26.448Z,11.80
2023-04-08T05:08:54.191Z,11.80
2023-04-08T05:11:22.045Z,11.60
2023-04-08T05:13:49.828Z,11.70
2023-04-08T05:16:17.841Z,11.70
2023-04-08T05:18:45.744Z,11.70
2023-04-08T05:21:13.466Z,11.80
2023-04-08T05:23:42.562Z,11.80
2023-04-08T05:26:10.514Z,11.70
2023-04-08T05:28:38.207Z,11.70
2023-04-08T05:31:06.042Z,11.70
2023-04-08T05:33:33.751Z,11.70
2023-04-08T05:36:01.496Z,11.70
2023-04-08T05:38:29.279Z,11.60
2023-04-08T05:40:58.317Z,11.70
2023-04-08T05:43:26.092Z,11.70
2023-04-08T05:45:53.864Z,11.70
2023-04-08T05:48:21.634Z,11.70
2023-04-08T05:50:49.329Z,11.70
2023-04-08T05:53:17.048Z,11.80
2023-04-08T05:55:44.776Z,11.80
2023-04-08T05:58:13.837Z,11.70
2023-04-08T06:00:41.536Z,11.70
2023-04-08T06:03:09.537Z,11.70
2023-04-08T06:05:37.351Z,11.80
2023-04-08T06:08:05.421Z,11.80
2023-04-08T06:10:33.162Z,11.80
2023-04-08T06:13:00.903Z,11.80
2023-04-08T06:15:30.036Z,11.80
2023-04-08T06:17:57.741Z,11.80
2023-04-08T06:20:25.634Z,11.80
2023-04-08T06:22:53.325Z,11.70
2023-04-08T06:25:21.042Z,11.80
2023-04-08T06:27:49.423Z,11.80
2023-04-08T06:30:17.352Z,11.80
2023-04-08T06:32:47.290Z,11.70
2023-04-08T06:35:15.752Z,11.80
2023-04-08T06:37:43.590Z,11.80
2023-04-08T06:40:11.879Z,11.80
2023-04-08T06:42:40.883Z,11.90
2023-04-08T06:45:09.485Z,11.90
2023-04-08T06:47:37.246Z,11.90
2023-04-08T06:50:07.483Z,11.90
2023-04-08T06:52:35.366Z,12.00
2023-04-08T06:55:03.593Z,11.90
2023-04-08T06:57:31.290Z,12.00
2023-04-08T07:00:00.509Z,11.90
2023-04-08T07:02:28.365Z,12.10
2023-04-08T07:04:56.134Z,12.00
2023-04-08T07:07:25.278Z,12.10
2023-04-08T07:09:53.223Z,12.10
2023-04-08T07:12:21.140Z,12.00
2023-04-08T07:14:49.221Z,12.10
2023-04-08T07:17:16.989Z,12.00
2023-04-08T07:19:44.790Z,12.10
2023-04-08T07:22:12.552Z,12.10
2023-04-08T07:24:42.869Z,12.10
2023-04-08T07:27:10.770Z,12.00
2023-04-08T07:29:38.455Z,12.00
2023-04-08T07:32:06.527Z,12.20
2023-04-08T07:34:35.728Z,12.20
2023-04-08T07:37:03.419Z,12.20
2023-04-08T07:39:31.157Z,12.20
2023-04-08T07:42:00.946Z,12.20
2023-04-08T07:44:28.700Z,12.20
2023-04-08T07:46:56.403Z,12.10
2023-04-08T07:49:24.220Z,12.20
2023-04-08T07:51:51.907Z,12.20
2023-04-08T07:54:19.676Z,12.30
2023-04-08T07:56:47.449Z,12.20
2023-04-08T07:59:16.708Z,12.20
2023-04-08T08:01:44.473Z,12.30
2023-04-08T08:04:12.287Z,12.40
2023-04-08T08:06:40.369Z,12.40
2023-04-08T08:09:08.112Z,12.30
2023-04-08T08:11:35.858Z,12.30
2023-04-08T08:14:04.524Z,12.20
2023-04-08T08:16:34.632Z,12.30
2023-04-08T08:19:02.871Z,12.20
2023-04-08T08:21:31.286Z,12.30
2023-04-08T08:23:59.622Z,12.20
2023-04-08T08:26:27.299Z,12.20
2023-04-08T08:28:55.189Z,12.30
2023-04-08T08:31:22.935Z,12.30
2023-04-08T08:33:52.263Z,12.40
2023-04-08T08:36:20.258Z,12.50
2023-04-08T08:38:47.955Z,12.50
2023-04-08T08:41:15.654Z,12.50
2023-04-08T08:43:44.796Z,12.50
2023-04-08T08:46:12.742Z,12.60
2023-04-08T08:48:40.744Z,12.60
2023-04-08T08:51:11.824Z,12.60
2023-04-08T08:53:39.780Z,12.60
2023-04-08T08:56:17.364Z,12.60
2023-04-08T08:58:47.317Z,12.80
2023-04-08T09:01:34.885Z,12.60
2023-04-08T09:04:23.669Z,12.50
2023-04-08T09:07:10.658Z,12.60
2023-04-08T09:09:50.063Z,12.70
2023-04-08T09:12:18.127Z,12.60
2023-04-08T09:14:46.412Z,12.80
2023-04-08T09:17:14.301Z,12.60
2023-04-08T09:20:06.575Z,12.50
2023-04-08T09:22:35.637Z,12.40
2023-04-08T09:25:23.937Z,12.40
2023-04-08T09:27:52.870Z,12.50
2023-04-08T09:30:24.145Z,12.40
2023-04-08T09:32:52.999Z,12.50
2023-04-08T09:35:21.339Z,12.50
2023-04-08T09:37:51.233Z,12.50
2023-04-08T09:40:19.456Z,12.60
2023-04-08T09:42:50.592Z,12.60
2023-04-08T09:45:19.376Z,12.60
2023-04-08T09:47:58.507Z,12.80
2023-04-08T09:50:32.554Z,12.80
2023-04-08T09:53:10.512Z,12.90
2023-04-08T09:55:39.228Z,13.00
2023-04-08T09:58:16.613Z,12.80
2023-04-08T10:00:50.667Z,13.00
2023-04-08T10:03:36.082Z,13.00
2023-04-08T10:06:04.539Z,13.40
2023-04-08T10:08:33.813Z,13.50
2023-04-08T10:11:01.815Z,13.60
2023-04-08T10:13:29.870Z,13.60
2023-04-08T10:16:19.543Z,13.40
2023-04-08T10:18:47.415Z,13.30
2023-04-08T10:21:33.426Z,13.40
2023-04-08T10:24:06.919Z,13.50
2023-04-08T10:26:37.035Z,13.50
2023-04-08T10:29:33.261Z,13.40
2023-04-08T10:32:01.380Z,13.40
2023-04-08T10:34:29.563Z,13.50
2023-04-08T10:37:02.009Z,13.40
2023-04-08T10:39:31.932Z,13.50
2023-04-08T10:44:30.291Z,13.60
2023-04-08T10:46:58.202Z,13.70
2023-04-08T10:49:34.259Z,13.60
2023-04-08T10:52:02.014Z,13.60
2023-04-08T10:54:31.182Z,13.50
2023-04-08T10:56:59.855Z,13.50
2023-04-08T10:59:32.162Z,13.50
2023-04-08T11:02:01.252Z,13.50
2023-04-08T11:04:29.485Z,13.40
2023-04-08T11:06:58.227Z,13.40
2023-04-08T11:09:25.933Z,13.60
2023-04-08T11:11:54.979Z,13.70
2023-04-08T11:14:23.527Z,13.80
2023-04-08T11:16:51.338Z,13.80
2023-04-08T11:19:19.412Z,13.90
2023-04-08T11:21:48.174Z,13.80
2023-04-08T11:24:16.540Z,13.70
2023-04-08T11:26:44.690Z,13.60
2023-04-08T11:29:15.173Z,13.70
2023-04-08T11:31:44.561Z,13.80
2023-04-08T11:34:12.912Z,13.70
2023-04-08T11:36:42.388Z,13.70
2023-04-08T11:39:11.905Z,13.60
2023-04-08T11:41:40.691Z,13.50
2023-04-08T11:44:09.153Z,13.60
2023-04-08T11:46:40.208Z,13.50
2023-04-08T11:49:09.992Z,13.30
2023-04-08T11:51:56.462Z,13.20
2023-04-08T11:54:28.832Z,13.30
2023-04-08T11:56:58.266Z,13.30
2023-04-08T11:59:29.007Z,13.20
2023-04-08T12:01:58.993Z,13.40
2023-04-08T12:04:27.670Z,13.50
2023-04-08T12:06:56.946Z,13.50
2023-04-08T12:09:26.082Z,13.40
2023-04-08T12:11:53.772Z,13.50
2023-04-08T12:14:26.795Z,13.50
2023-04-08T12:16:55.837Z,13.50
2023-04-08T12:19:24.969Z,13.50
2023-04-08T12:21:52.674Z,13.40
2023-04-08T12:24:21.066Z,13.40
2023-04-08T12:26:48.749Z,13.40
2023-04-08T12:29:16.691Z,13.40
2023-04-08T12:31:44.656Z,13.40
2023-04-08T12:34:12.357Z,13.40
2023-04-08T12:36:41.939Z,13.40
2023-04-08T12:39:10.080Z,13.40
2023-04-08T12:41:37.730Z,13.40
2023-04-08T12:44:05.590Z,13.40
2023-04-08T12:46:33.308Z,13.40
2023-04-08T12:49:04.647Z,13.40
2023-04-08T12:51:33.274Z,13.40
2023-04-08T12:54:03.541Z,13.50
2023-04-08T12:56:31.591Z,13.60
2023-04-08T12:59:00.984Z,13.60
2023-04-08T13:01:28.813Z,13.70
2023-04-08T13:03:56.765Z,13.70
2023-04-08T13:06:24.817Z,13.80
2023-04-08T13:08:52.779Z,13.90
2023-04-08T13:11:22.288Z,14.00
2023-04-08T13:13:50.439Z,14.10
2023-04-08T13:16:18.397Z,14.00
2023-04-08T13:18:46.615Z,14.10
2023-04-08T13:21:14.303Z,13.90
2023-04-08T13:23:42.348Z,14.10
2023-04-08T13:26:10.195Z,14.10
2023-04-08T13:28:53.743Z,14.20
2023-04-08T13:31:24.926Z,14.20
2023-04-08T13:33:55.229Z,14.20
2023-04-08T13:36:23.158Z,14.20
2023-04-08T13:38:51.053Z,14.20
2023-04-08T13:41:19.000Z,14.30
2023-04-08T13:43:48.684Z,14.20
2023-04-08T13:46:16.529Z,14.30
2023-04-08T13:48:44.298Z,14.20
2023-04-08T13:51:11.996Z,14.20
2023-04-08T13:53:39.754Z,14.20
2023-04-08T13:56:08.119Z,14.10
2023-04-08T13:58:35.764Z,14.10
2023-04-08T14:01:05.592Z,14.20
2023-04-08T14:03:33.312Z,14.20
2023-04-08T14:06:01.939Z,14.20
2023-04-08T14:08:29.791Z,14.20
2023-04-08T14:10:57.655Z,14.10
2023-04-08T14:13:25.647Z,14.10
2023-04-08T14:15:56.133Z,14.10
2023-04-08T14:18:26.137Z,14.20
2023-04-08T14:20:53.990Z,14.10
2023-04-08T14:23:21.685Z,14.30
2023-04-08T14:25:49.408Z,14.40
2023-04-08T14:28:17.110Z,14.40
2023-04-08T14:30:44.829Z,14.40
2023-04-08T14:33:13.025Z,14.40
2023-04-08T14:35:42.128Z,14.30
2023-04-08T14:38:09.864Z,14.30
2023-04-08T14:40:37.991Z,14.40
2023-04-08T14:43:05.792Z,14.50
2023-04-08T14:45:33.972Z,14.40
2023-04-08T14:48:01.993Z,14.40
2023-04-08T14:50:30.585Z,14.40
2023-04-08T14:52:59.717Z,14.40
2023-04-08T14:55:28.578Z,14.50
2023-04-08T14:57:56.884Z,14.40
2023-04-08T15:00:24.891Z,14.50
2023-04-08T15:02:53.676Z,14.60
2023-04-08T15:05:21.467Z,14.60
2023-04-08T15:07:49.301Z,14.60
2023-04-08T15:10:18.489Z,14.50
2023-04-08T15:12:46.771Z,14.50
2023-04-08T15:15:14.517Z,14.60
2023-04-08T15:17:42.376Z,14.60
2023-04-08T15:20:11.082Z,14.60
2023-04-08T15:22:38.805Z,14.60
2023-04-08T15:25:07.464Z,14.60
2023-04-08T15:27:36.742Z,14.60
2023-04-08T15:30:04.690Z,14.60
2023-04-08T15:32:32.393Z,14.60
2023-04-08T15:35:00.567Z,14.60
2023-04-08T15:37:28.542Z,14.70
2023-04-08T15:39:56.226Z,14.50
2023-04-08T15:42:24.017Z,14.40
2023-04-08T15:44:53.153Z,14.50
2023-04-08T15:47:20.808Z,14.30
2023-04-08T15:49:48.831Z,14.10
2023-04-08T15:52:16.770Z,14.10
2023-04-08T15:54:44.484Z,13.90
2023-04-08T15:57:12.385Z,13.90
2023-04-08T15:59:40.205Z,13.80
2023-04-08T16:02:09.421Z,13.60
2023-04-08T16:04:37.847Z,13.70
2023-04-08T16:07:05.561Z,13.70
2023-04-08T16:09:33.256Z,13.70
2023-04-08T16:12:00.940Z,13.70
2023-04-08T16:14:28.931Z,13.70
2023-04-08T16:16:57.570Z,13.70
2023-04-08T16:19:27.279Z,13.60
2023-04-08T16:21:54.981Z,13.70
2023-04-08T16:24:22.926Z,13.70
2023-04-08T16:26:50.623Z,13.70
2023-04-08T16:29:18.294Z,13.70
2023-04-08T16:31:46.018Z,13.80
2023-04-08T16:34:13.684Z,13.60
2023-04-08T16:36:42.727Z,13.60
2023-04-08T16:39:10.520Z,13.60
2023-04-08T16:41:39.309Z,13.60
2023-04-08T16:44:07.034Z,13.70
2023-04-08T16:46:34.824Z,13.70
2023-04-08T16:49:02.587Z,13.70
2023-04-08T16:51:30.651Z,13.80
2023-04-08T16:54:00.072Z,13.80
2023-04-08T16:56:28.051Z,13.90
2023-04-08T16:58:55.735Z,13.90
2023-04-08T17:01:23.619Z,13.80
2023-04-08T17:03:52.305Z,13.90
2023-04-08T17:06:20.221Z,13.70
2023-04-08T17:08:47.890Z,13.70
2023-04-08T17:11:17.030Z,13.80
2023-04-08T17:13:45.569Z,13.70
2023-04-08T17:16:14.300Z,13.70
2023-04-08T17:18:42.176Z,13.70
2023-04-08T17:21:10.222Z,13.70
2023-04-08T17:23:38.633Z,13.70
2023-04-08T17:26:07.462Z,13.80
2023-04-08T17:28:36.791Z,13.80
2023-04-08T17:31:04.750Z,13.80
2023-04-08T17:33:34.043Z,13.90
2023-04-08T17:36:01.843Z,13.80
2023-04-08T17:38:29.658Z,13.80
2023-04-08T17:40:57.476Z,13.80
2023-04-08T17:43:25.189Z,13.80
2023-04-08T17:45:54.304Z,13.70
2023-04-08T17:48:22.662Z,13.60
2023-04-08T17:50:50.307Z,13.70
2023-04-08T17:53:18.050Z,13.60
2023-04-08T17:55:45.844Z,13.50
2023-04-08T17:58:13.596Z,13.50
2023-04-08T18:00:41.618Z,13.50
2023-04-08T18:03:10.901Z,13.50
2023-04-08T18:05:38.744Z,13.40
2023-04-08T18:08:06.617Z,13.50
2023-04-08T18:10:34.416Z,13.30
2023-04-08T18:13:10.853Z,13.40
2023-04-08T18:15:39.305Z,13.40
2023-04-08T18:18:06.973Z,13.40
2023-04-08T18:20:37.740Z,13.50
2023-04-08T18:23:05.484Z,13.50
2023-04-08T18:25:34.741Z,13.60
2023-04-08T18:28:02.495Z,13.60
2023-04-08T18:30:30.437Z,13.60
2023-04-08T18:32:58.227Z,13.60
2023-04-08T18:35:26.168Z,13.70
2023-04-08T18:37:56.454Z,13.70
2023-04-08T18:40:24.874Z,13.70
2023-04-08T18:42:52.631Z,13.80
2023-04-08T18:45:20.635Z,13.80
2023-04-08T18:47:48.339Z,13.80
2023-04-08T18:50:16.116Z,13.90
2023-04-08T18:52:43.779Z,13.90
2023-04-08T18:55:12.944Z,13.80
2023-04-08T18:57:40.638Z,13.90
2023-04-08T19:00:09.687Z,13.90
2023-04-08T19:02:37.417Z,14.00
2023-04-08T19:05:05.611Z,14.20
2023-04-08T19:07:34.188Z,14.20
2023-04-08T19:10:01.935Z,14.20
2023-04-08T19:12:31.349Z,14.00
2023-04-08T19:14:59.283Z,14.00
2023-04-08T19:17:27.032Z,13.80
2023-04-08T19:19:54.793Z,13.80
2023-04-08T19:22:22.494Z,13.80
2023-04-08T19:24:50.379Z,13.70
2023-04-08T19:27:18.072Z,13.60
2023-04-08T19:29:47.192Z,13.50
2023-04-08T19:32:15.641Z,13.50
2023-04-08T19:34:43.357Z,13.50
2023-04-08T19:37:11.128Z,13.40
2023-04-08T19:39:38.897Z,13.30
2023-04-08T19:42:06.880Z,13.30
2023-04-08T19:44:34.587Z,13.20
2023-04-08T19:47:05.416Z,13.20
2023-04-08T19:49:33.396Z,13.40
2023-04-08T19:52:01.177Z,13.30
2023-04-08T19:54:30.168Z,13.20
2023-04-08T19:56:58.430Z,13.10
2023-04-08T19:59:26.354Z,13.10
2023-04-08T20:01:54.215Z,13.10
2023-04-08T20:04:23.374Z,13.10
2023-04-08T20:06:51.226Z,12.90
2023-04-08T20:09:18.895Z,12.90
2023-04-08T20:11:46.611Z,13.00
2023-04-08T20:14:14.416Z,12.80
2023-04-08T20:16:42.278Z,12.90
2023-04-08T20:19:09.966Z,12.80
2023-04-08T20:21:39.388Z,12.80
2023-04-08T20:24:07.228Z,12.80
2023-04-08T20:26:35.733Z,12.70
2023-04-08T20:29:03.419Z,12.60
2023-04-08T20:31:32.283Z,12.50
2023-04-08T20:34:00.242Z,12.40
2023-04-08T20:36:29.538Z,12.40
2023-04-08T20:38:58.626Z,12.30
2023-04-08T20:41:27.090Z,12.20
2023-04-08T20:43:55.451Z,12.30
2023-04-08T20:46:24.465Z,12.40
2023-04-08T20:48:52.676Z,12.20
2023-04-08T20:51:20.572Z,12.30
2023-04-08T20:53:48.325Z,12.40
2023-04-08T20:56:17.455Z,12.20
2023-04-08T20:58:45.478Z,12.30
2023-04-08T21:01:13.283Z,12.10
2023-04-08T21:03:41.343Z,12.10
2023-04-08T21:06:09.244Z,12.10
2023-04-08T21:08:36.899Z,12.00
2023-04-08T21:11:04.560Z,11.90
2023-04-08T21:13:33.596Z,11.70
2023-04-08T21:16:01.268Z,11.50
2023-04-08T21:18:28.958Z,11.60
2023-04-08T21:20:56.746Z,11.50
2023-04-08T21:23:24.541Z,11.70
2023-04-08T21:25:52.636Z,11.50
2023-04-08T21:28:20.336Z,11.30
2023-04-08T21:30:49.522Z,11.20
2023-04-08T21:33:17.565Z,11.30
2023-04-08T21:35:45.395Z,11.50
2023-04-08T21:38:13.125Z,11.50
2023-04-08T21:40:41.157Z,11.40
2023-04-08T21:43:08.873Z,11.50
2023-04-08T21:45:36.744Z,11.40
2023-04-08T21:48:07.045Z,11.40
2023-04-08T21:50:34.752Z,11.40
2023-04-08T21:53:02.521Z,11.50
2023-04-08T21:55:30.399Z,11.40
2023-04-08T21:57:58.187Z,11.40
2023-04-08T22:00:25.951Z,11.30
2023-04-08T22:02:53.726Z,11.40
2023-04-08T22:05:23.400Z,11.40
2023-04-08T22:07:51.199Z,11.40
2023-04-08T22:10:18.996Z,11.60
2023-04-08T22:12:46.886Z,11.60
2023-04-08T22:15:14.767Z,11.80
2023-04-08T22:17:42.540Z,11.30
2023-04-08T22:20:11.417Z,11.00
2023-04-08T22:22:40.660Z,11.20
2023-04-08T22:25:09.225Z,11.20
2023-04-08T22:27:37.374Z,11.20
2023-04-08T22:30:05.832Z,11.10
2023-04-08T22:32:33.809Z,11.00
2023-04-08T22:35:01.656Z,10.80
2023-04-08T22:37:29.408Z,10.60
2023-04-08T22:40:00.508Z,10.50
2023-04-08T22:42:28.298Z,10.50
2023-04-08T22:44:56.145Z,10.60
2023-04-08T22:47:23.995Z,10.80
2023-04-08T22:49:51.791Z,10.90
2023-04-08T22:52:19.497Z,10.90
2023-04-08T22:54:47.218Z,10.90
2023-04-08T22:57:16.376Z,10.80
2023-04-08T22:59:44.197Z,10.80
2023-04-08T23:02:12.098Z,10.70
2023-04-08T23:04:39.993Z,10.60
2023-04-08T23:07:07.828Z,10.80
2023-04-08T23:09:35.488Z,10.80
2023-04-08T23:12:03.270Z,10.80
2023-04-08T23:14:32.357Z,10.60
2023-04-08T23:17:00.064Z,10.60
2023-04-08T23:19:27.853Z,10.60
2023-04-08T23:21:55.629Z,10.80
2023-04-08T23:24:23.352Z,10.90
2023-04-08T23:26:51.079Z,10.90
2023-04-08T23:29:18.785Z,10.60
2023-04-08T23:31:47.836Z,10.70
2023-04-08T23:34:15.489Z,10.80
2023-04-08T23:36:43.217Z,10.80
2023-04-08T23:39:10.962Z,10.70
2023-04-08T23:41:38.663Z,10.60
2023-04-08T23:44:06.707Z,10.60
2023-04-08T23:46:34.522Z,10.60
2023-04-08T23:49:03.710Z,10.40
2023-04-08T23:51:31.463Z,10.30
2023-04-08T23:53:59.202Z,10.30
2023-04-08T23:56:27.244Z,10.10
2023-04-08T23:58:55.141Z,9.90
